Terminal Aerodrome Forecast
Issued by NWS

Home | Current Version | Previous Version | Text Only | Print | Product List | Glossary On
Versions: 1 2 3 4 5 6 7 8 9 10 11 12 13 14 15 16 17 18 19 20 21 22 23 24 25 26 27 28 29 30 31 32 33 34
000
FTUS45 KBYZ 051136
TAFLVM
TAF
KLVM 051136Z 0512/0612 26023G30KT P6SM BKN150
      TEMPO 0512/0516 22030G45KT
     FM060600 24028G35KT P6SM SCT150=

USA.gov is the U.S. government's official web portal to all federal, state and local government web resources and services.